sensor_id;sensor_type;location;lat;lon;timestamp;P1;durP1;ratioP1;P2;durP2;ratioP2
74959;SDS011;63518;49.572;1.106;2022-12-07T00:01:54;20.08;;;7.55;;
74959;SDS011;63518;49.572;1.106;2022-12-07T00:04:23;32.15;;;13.40;;
74959;SDS011;63518;49.572;1.106;2022-12-07T00:06:51;24.88;;;11.25;;
74959;SDS011;63518;49.572;1.106;2022-12-07T00:09:36;22.08;;;9.98;;
74959;SDS011;63518;49.572;1.106;2022-12-07T00:12:03;18.45;;;9.23;;
74959;SDS011;63518;49.572;1.106;2022-12-07T00:14:34;15.07;;;7.88;;
74959;SDS011;63518;49.572;1.106;2022-12-07T00:17:01;20.90;;;10.73;;
74959;SDS011;63518;49.572;1.106;2022-12-07T00:19:33;24.80;;;12.35;;
74959;SDS011;63518;49.572;1.106;2022-12-07T00:22:02;19.08;;;9.07;;
74959;SDS011;63518;49.572;1.106;2022-12-07T00:24:42;18.58;;;7.45;;
74959;SDS011;63518;49.572;1.106;2022-12-07T00:27:15;14.85;;;7.53;;
74959;SDS011;63518;49.572;1.106;2022-12-07T00:29:50;22.52;;;10.23;;
74959;SDS011;63518;49.572;1.106;2022-12-07T00:32:19;15.35;;;9.00;;
74959;SDS011;63518;49.572;1.106;2022-12-07T00:35:14;20.55;;;7.95;;
74959;SDS011;63518;49.572;1.106;2022-12-07T00:37:53;21.15;;;8.98;;
74959;SDS011;63518;49.572;1.106;2022-12-07T00:40:23;21.90;;;8.25;;
74959;SDS011;63518;49.572;1.106;2022-12-07T00:43:00;18.50;;;8.40;;
74959;SDS011;63518;49.572;1.106;2022-12-07T00:45:27;14.93;;;6.70;;
74959;SDS011;63518;49.572;1.106;2022-12-07T00:47:56;15.80;;;6.80;;
74959;SDS011;63518;49.572;1.106;2022-12-07T00:50:33;14.85;;;7.05;;
74959;SDS011;63518;49.572;1.106;2022-12-07T00:53:06;15.05;;;7.00;;
74959;SDS011;63518;49.572;1.106;2022-12-07T00:55:34;16.33;;;6.88;;
74959;SDS011;63518;49.572;1.106;2022-12-07T00:58:08;16.75;;;5.45;;
74959;SDS011;63518;49.572;1.106;2022-12-07T01:00:42;13.88;;;6.15;;
74959;SDS011;63518;49.572;1.106;2022-12-07T01:03:13;20.65;;;7.25;;
74959;SDS011;63518;49.572;1.106;2022-12-07T01:05:51;18.58;;;7.03;;
74959;SDS011;63518;49.572;1.106;2022-12-07T01:08:28;15.13;;;6.60;;
74959;SDS011;63518;49.572;1.106;2022-12-07T01:11:01;15.20;;;7.03;;
74959;SDS011;63518;49.572;1.106;2022-12-07T01:13:34;20.35;;;6.38;;
74959;SDS011;63518;49.572;1.106;2022-12-07T01:16:05;11.65;;;5.60;;
74959;SDS011;63518;49.572;1.106;2022-12-07T01:18:51;15.30;;;5.97;;
74959;SDS011;63518;49.572;1.106;2022-12-07T01:21:22;11.05;;;5.30;;
74959;SDS011;63518;49.572;1.106;2022-12-07T01:23:56;12.73;;;4.78;;
74959;SDS011;63518;49.572;1.106;2022-12-07T01:26:25;9.15;;;4.32;;
74959;SDS011;63518;49.572;1.106;2022-12-07T01:29:03;8.85;;;4.70;;
74959;SDS011;63518;49.572;1.106;2022-12-07T01:31:55;9.73;;;3.78;;
74959;SDS011;63518;49.572;1.106;2022-12-07T01:34:27;14.07;;;5.65;;
74959;SDS011;63518;49.572;1.106;2022-12-07T01:36:57;12.10;;;4.93;;
74959;SDS011;63518;49.572;1.106;2022-12-07T01:39:30;20.73;;;6.65;;
74959;SDS011;63518;49.572;1.106;2022-12-07T01:41:57;13.40;;;5.63;;
74959;SDS011;63518;49.572;1.106;2022-12-07T01:45:14;17.77;;;6.72;;
74959;SDS011;63518;49.572;1.106;2022-12-07T01:48:05;12.63;;;6.55;;
74959;SDS011;63518;49.572;1.106;2022-12-07T01:50:43;21.83;;;10.82;;
74959;SDS011;63518;49.572;1.106;2022-12-07T01:53:49;16.15;;;6.80;;
74959;SDS011;63518;49.572;1.106;2022-12-07T01:56:17;15.95;;;9.00;;
74959;SDS011;63518;49.572;1.106;2022-12-07T01:59:00;26.00;;;11.75;;
74959;SDS011;63518;49.572;1.106;2022-12-07T02:01:32;18.98;;;8.82;;
74959;SDS011;63518;49.572;1.106;2022-12-07T02:04:03;18.90;;;8.60;;
74959;SDS011;63518;49.572;1.106;2022-12-07T02:06:31;17.40;;;7.30;;
74959;SDS011;63518;49.572;1.106;2022-12-07T02:09:04;13.27;;;6.07;;
74959;SDS011;63518;49.572;1.106;2022-12-07T02:11:36;14.65;;;6.90;;
74959;SDS011;63518;49.572;1.106;2022-12-07T02:25:40;10.52;;;4.93;;
74959;SDS011;63518;49.572;1.106;2022-12-07T02:30:58;11.80;;;4.93;;
74959;SDS011;63518;49.572;1.106;2022-12-07T02:34:24;10.20;;;5.18;;
74959;SDS011;63518;49.572;1.106;2022-12-07T02:36:43;11.00;;;6.07;;
74959;SDS011;63518;49.572;1.106;2022-12-07T02:39:26;13.27;;;5.60;;
74959;SDS011;63518;49.572;1.106;2022-12-07T02:42:06;15.55;;;8.20;;
74959;SDS011;63518;49.572;1.106;2022-12-07T02:44:41;16.15;;;6.60;;
74959;SDS011;63518;49.572;1.106;2022-12-07T02:47:14;10.68;;;5.38;;
74959;SDS011;63518;49.572;1.106;2022-12-07T02:49:44;10.68;;;6.03;;
74959;SDS011;63518;49.572;1.106;2022-12-07T02:52:11;13.60;;;5.65;;
74959;SDS011;63518;49.572;1.106;2022-12-07T02:54:53;13.88;;;5.45;;
74959;SDS011;63518;49.572;1.106;2022-12-07T03:00:25;15.90;;;6.03;;
74959;SDS011;63518;49.572;1.106;2022-12-07T03:02:59;10.32;;;5.13;;
74959;SDS011;63518;49.572;1.106;2022-12-07T03:10:59;14.35;;;7.20;;
74959;SDS011;63518;49.572;1.106;2022-12-07T03:13:33;16.02;;;7.20;;
74959;SDS011;63518;49.572;1.106;2022-12-07T03:16:14;12.90;;;6.25;;
74959;SDS011;63518;49.572;1.106;2022-12-07T03:24:21;18.90;;;9.35;;
74959;SDS011;63518;49.572;1.106;2022-12-07T03:26:52;25.40;;;10.93;;
74959;SDS011;63518;49.572;1.106;2022-12-07T03:29:37;16.70;;;7.40;;
74959;SDS011;63518;49.572;1.106;2022-12-07T03:32:16;27.35;;;10.85;;
74959;SDS011;63518;49.572;1.106;2022-12-07T03:43:13;10.60;;;5.18;;
74959;SDS011;63518;49.572;1.106;2022-12-07T03:45:44;11.50;;;5.88;;
74959;SDS011;63518;49.572;1.106;2022-12-07T03:48:42;13.50;;;5.18;;
74959;SDS011;63518;49.572;1.106;2022-12-07T03:54:34;12.85;;;5.07;;
74959;SDS011;63518;49.572;1.106;2022-12-07T03:57:07;12.32;;;4.80;;
74959;SDS011;63518;49.572;1.106;2022-12-07T03:59:35;11.02;;;4.38;;
74959;SDS011;63518;49.572;1.106;2022-12-07T04:04:44;8.52;;;4.10;;
74959;SDS011;63518;49.572;1.106;2022-12-07T04:07:19;12.43;;;4.50;;
74959;SDS011;63518;49.572;1.106;2022-12-07T04:09:55;9.32;;;5.43;;
74959;SDS011;63518;49.572;1.106;2022-12-07T04:12:22;16.58;;;7.95;;
74959;SDS011;63518;49.572;1.106;2022-12-07T04:14:54;13.10;;;6.55;;
74959;SDS011;63518;49.572;1.106;2022-12-07T04:17:27;18.08;;;7.38;;
74959;SDS011;63518;49.572;1.106;2022-12-07T04:20:05;9.20;;;5.00;;
74959;SDS011;63518;49.572;1.106;2022-12-07T04:22:36;11.23;;;5.32;;
74959;SDS011;63518;49.572;1.106;2022-12-07T04:25:08;11.50;;;6.15;;
74959;SDS011;63518;49.572;1.106;2022-12-07T04:27:36;15.85;;;5.88;;
74959;SDS011;63518;49.572;1.106;2022-12-07T04:30:07;9.68;;;3.95;;
74959;SDS011;63518;49.572;1.106;2022-12-07T04:32:39;12.80;;;5.30;;
74959;SDS011;63518;49.572;1.106;2022-12-07T04:35:08;9.00;;;4.32;;
74959;SDS011;63518;49.572;1.106;2022-12-07T04:37:37;7.85;;;4.45;;
74959;SDS011;63518;49.572;1.106;2022-12-07T04:40:07;10.27;;;4.47;;
74959;SDS011;63518;49.572;1.106;2022-12-07T04:42:38;9.55;;;5.32;;
74959;SDS011;63518;49.572;1.106;2022-12-07T04:45:25;7.85;;;4.30;;
74959;SDS011;63518;49.572;1.106;2022-12-07T04:47:58;10.88;;;5.03;;
74959;SDS011;63518;49.572;1.106;2022-12-07T04:50:25;11.93;;;5.50;;
74959;SDS011;63518;49.572;1.106;2022-12-07T04:52:58;12.98;;;5.65;;
74959;SDS011;63518;49.572;1.106;2022-12-07T04:55:25;16.33;;;7.82;;
74959;SDS011;63518;49.572;1.106;2022-12-07T04:57:55;17.08;;;8.45;;
74959;SDS011;63518;49.572;1.106;2022-12-07T05:00:22;12.75;;;6.25;;
74959;SDS011;63518;49.572;1.106;2022-12-07T05:02:56;10.25;;;4.85;;
74959;SDS011;63518;49.572;1.106;2022-12-07T05:05:23;9.32;;;4.72;;
74959;SDS011;63518;49.572;1.106;2022-12-07T05:07:52;9.23;;;4.80;;
74959;SDS011;63518;49.572;1.106;2022-12-07T05:10:20;12.48;;;5.07;;
74959;SDS011;63518;49.572;1.106;2022-12-07T05:12:52;10.32;;;4.28;;
74959;SDS011;63518;49.572;1.106;2022-12-07T05:15:20;9.77;;;5.43;;
74959;SDS011;63518;49.572;1.106;2022-12-07T05:17:50;7.35;;;4.32;;
74959;SDS011;63518;49.572;1.106;2022-12-07T05:20:19;11.10;;;5.35;;
74959;SDS011;63518;49.572;1.106;2022-12-07T05:22:52;8.52;;;4.63;;
74959;SDS011;63518;49.572;1.106;2022-12-07T05:25:24;14.90;;;7.70;;
74959;SDS011;63518;49.572;1.106;2022-12-07T05:28:05;13.15;;;6.28;;
74959;SDS011;63518;49.572;1.106;2022-12-07T05:30:38;14.48;;;6.28;;
74959;SDS011;63518;49.572;1.106;2022-12-07T05:33:07;11.30;;;5.55;;
74959;SDS011;63518;49.572;1.106;2022-12-07T05:35:34;10.43;;;4.88;;
74959;SDS011;63518;49.572;1.106;2022-12-07T05:38:07;17.33;;;7.47;;
74959;SDS011;63518;49.572;1.106;2022-12-07T05:40:34;20.23;;;8.40;;
74959;SDS011;63518;49.572;1.106;2022-12-07T05:43:07;17.10;;;8.88;;
74959;SDS011;63518;49.572;1.106;2022-12-07T05:45:41;19.92;;;7.43;;
74959;SDS011;63518;49.572;1.106;2022-12-07T05:48:24;15.93;;;6.35;;
74959;SDS011;63518;49.572;1.106;2022-12-07T05:50:52;12.23;;;6.20;;
74959;SDS011;63518;49.572;1.106;2022-12-07T05:53:28;16.20;;;7.70;;
74959;SDS011;63518;49.572;1.106;2022-12-07T05:55:55;16.05;;;5.93;;
74959;SDS011;63518;49.572;1.106;2022-12-07T05:58:34;13.35;;;6.03;;
74959;SDS011;63518;49.572;1.106;2022-12-07T06:01:23;9.80;;;4.20;;
74959;SDS011;63518;49.572;1.106;2022-12-07T06:03:57;7.90;;;4.05;;
74959;SDS011;63518;49.572;1.106;2022-12-07T06:06:30;12.63;;;5.13;;
74959;SDS011;63518;49.572;1.106;2022-12-07T06:09:02;10.48;;;5.25;;
74959;SDS011;63518;49.572;1.106;2022-12-07T06:11:30;12.50;;;5.95;;
74959;SDS011;63518;49.572;1.106;2022-12-07T06:14:21;14.48;;;5.20;;
74959;SDS011;63518;49.572;1.106;2022-12-07T06:16:50;8.82;;;4.13;;
74959;SDS011;63518;49.572;1.106;2022-12-07T06:19:20;8.70;;;4.97;;
74959;SDS011;63518;49.572;1.106;2022-12-07T06:21:49;14.57;;;6.00;;
74959;SDS011;63518;49.572;1.106;2022-12-07T06:24:20;15.50;;;6.60;;
74959;SDS011;63518;49.572;1.106;2022-12-07T06:26:50;15.13;;;6.20;;
74959;SDS011;63518;49.572;1.106;2022-12-07T06:29:17;11.05;;;5.38;;
74959;SDS011;63518;49.572;1.106;2022-12-07T06:31:45;10.65;;;5.32;;
74959;SDS011;63518;49.572;1.106;2022-12-07T06:34:20;9.82;;;5.43;;
74959;SDS011;63518;49.572;1.106;2022-12-07T06:36:54;10.65;;;5.00;;
74959;SDS011;63518;49.572;1.106;2022-12-07T06:39:22;10.90;;;4.43;;
74959;SDS011;63518;49.572;1.106;2022-12-07T06:41:52;11.05;;;4.78;;
74959;SDS011;63518;49.572;1.106;2022-12-07T06:44:21;10.23;;;4.47;;
74959;SDS011;63518;49.572;1.106;2022-12-07T06:46:53;12.43;;;6.03;;
74959;SDS011;63518;49.572;1.106;2022-12-07T06:49:41;11.10;;;5.95;;
74959;SDS011;63518;49.572;1.106;2022-12-07T06:52:13;8.02;;;3.92;;
74959;SDS011;63518;49.572;1.106;2022-12-07T06:54:51;9.18;;;4.20;;
74959;SDS011;63518;49.572;1.106;2022-12-07T06:57:21;8.80;;;3.60;;
74959;SDS011;63518;49.572;1.106;2022-12-07T06:59:54;8.60;;;4.38;;
74959;SDS011;63518;49.572;1.106;2022-12-07T07:02:26;9.23;;;4.78;;
74959;SDS011;63518;49.572;1.106;2022-12-07T07:05:02;9.25;;;4.10;;
74959;SDS011;63518;49.572;1.106;2022-12-07T07:07:44;8.27;;;3.17;;
74959;SDS011;63518;49.572;1.106;2022-12-07T07:10:34;12.15;;;4.78;;
74959;SDS011;63518;49.572;1.106;2022-12-07T07:13:11;8.73;;;4.22;;
74959;SDS011;63518;49.572;1.106;2022-12-07T07:15:48;9.40;;;4.95;;
74959;SDS011;63518;49.572;1.106;2022-12-07T07:18:39;11.77;;;5.47;;
74959;SDS011;63518;49.572;1.106;2022-12-07T07:21:12;9.07;;;4.38;;
74959;SDS011;63518;49.572;1.106;2022-12-07T07:23:43;13.30;;;4.93;;
74959;SDS011;63518;49.572;1.106;2022-12-07T07:26:12;6.15;;;3.00;;
74959;SDS011;63518;49.572;1.106;2022-12-07T07:28:59;16.63;;;7.72;;
74959;SDS011;63518;49.572;1.106;2022-12-07T07:31:26;11.38;;;5.32;;
74959;SDS011;63518;49.572;1.106;2022-12-07T07:34:11;9.80;;;4.75;;
74959;SDS011;63518;49.572;1.106;2022-12-07T07:36:45;10.85;;;4.75;;
74959;SDS011;63518;49.572;1.106;2022-12-07T07:39:17;9.93;;;5.35;;
74959;SDS011;63518;49.572;1.106;2022-12-07T07:41:52;10.55;;;5.00;;
74959;SDS011;63518;49.572;1.106;2022-12-07T07:44:22;10.80;;;5.57;;
74959;SDS011;63518;49.572;1.106;2022-12-07T07:46:50;9.15;;;4.15;;
74959;SDS011;63518;49.572;1.106;2022-12-07T07:49:24;13.70;;;6.43;;
74959;SDS011;63518;49.572;1.106;2022-12-07T07:51:52;11.88;;;5.63;;
74959;SDS011;63518;49.572;1.106;2022-12-07T07:54:22;9.07;;;5.07;;
74959;SDS011;63518;49.572;1.106;2022-12-07T07:57:01;8.70;;;5.10;;
74959;SDS011;63518;49.572;1.106;2022-12-07T07:59:30;8.55;;;3.97;;
74959;SDS011;63518;49.572;1.106;2022-12-07T08:01:59;16.02;;;7.53;;
74959;SDS011;63518;49.572;1.106;2022-12-07T08:04:43;10.65;;;5.28;;
74959;SDS011;63518;49.572;1.106;2022-12-07T08:07:13;9.95;;;5.20;;
74959;SDS011;63518;49.572;1.106;2022-12-07T08:09:46;23.75;;;11.05;;
74959;SDS011;63518;49.572;1.106;2022-12-07T08:12:16;17.02;;;7.97;;
74959;SDS011;63518;49.572;1.106;2022-12-07T08:14:58;25.95;;;9.30;;
74959;SDS011;63518;49.572;1.106;2022-12-07T08:17:53;14.07;;;7.45;;
74959;SDS011;63518;49.572;1.106;2022-12-07T08:20:21;20.83;;;8.93;;
74959;SDS011;63518;49.572;1.106;2022-12-07T08:23:14;11.52;;;5.57;;
74959;SDS011;63518;49.572;1.106;2022-12-07T08:26:06;10.98;;;5.65;;
74959;SDS011;63518;49.572;1.106;2022-12-07T08:28:40;14.40;;;5.88;;
74959;SDS011;63518;49.572;1.106;2022-12-07T08:34:19;12.70;;;6.25;;
74959;SDS011;63518;49.572;1.106;2022-12-07T08:36:55;11.35;;;5.40;;
74959;SDS011;63518;49.572;1.106;2022-12-07T08:39:31;13.88;;;6.97;;
74959;SDS011;63518;49.572;1.106;2022-12-07T08:41:58;9.18;;;5.10;;
74959;SDS011;63518;49.572;1.106;2022-12-07T08:44:30;9.43;;;5.13;;
74959;SDS011;63518;49.572;1.106;2022-12-07T08:46:58;9.75;;;5.43;;
74959;SDS011;63518;49.572;1.106;2022-12-07T08:49:44;13.95;;;6.65;;
74959;SDS011;63518;49.572;1.106;2022-12-07T08:52:26;13.77;;;6.63;;
74959;SDS011;63518;49.572;1.106;2022-12-07T08:54:57;10.48;;;5.18;;
74959;SDS011;63518;49.572;1.106;2022-12-07T08:57:35;9.80;;;4.30;;
74959;SDS011;63518;49.572;1.106;2022-12-07T09:00:24;9.50;;;4.05;;
74959;SDS011;63518;49.572;1.106;2022-12-07T09:03:21;10.15;;;3.97;;
74959;SDS011;63518;49.572;1.106;2022-12-07T09:05:54;13.82;;;6.68;;
74959;SDS011;63518;49.572;1.106;2022-12-07T09:08:49;12.60;;;6.47;;
74959;SDS011;63518;49.572;1.106;2022-12-07T09:11:21;16.92;;;8.50;;
74959;SDS011;63518;49.572;1.106;2022-12-07T09:13:55;10.18;;;5.20;;
74959;SDS011;63518;49.572;1.106;2022-12-07T09:16:25;14.48;;;6.75;;
74959;SDS011;63518;49.572;1.106;2022-12-07T09:19:19;16.85;;;9.43;;
74959;SDS011;63518;49.572;1.106;2022-12-07T09:21:55;13.10;;;6.95;;
74959;SDS011;63518;49.572;1.106;2022-12-07T09:24:40;15.10;;;6.20;;
74959;SDS011;63518;49.572;1.106;2022-12-07T09:27:12;10.02;;;5.43;;
74959;SDS011;63518;49.572;1.106;2022-12-07T09:29:54;14.00;;;7.22;;
74959;SDS011;63518;49.572;1.106;2022-12-07T09:32:27;14.05;;;7.50;;
74959;SDS011;63518;49.572;1.106;2022-12-07T09:34:59;14.85;;;7.53;;
74959;SDS011;63518;49.572;1.106;2022-12-07T09:37:37;15.90;;;7.47;;
74959;SDS011;63518;49.572;1.106;2022-12-07T09:40:10;19.27;;;8.90;;
74959;SDS011;63518;49.572;1.106;2022-12-07T09:42:49;12.85;;;6.72;;
74959;SDS011;63518;49.572;1.106;2022-12-07T09:45:27;12.02;;;5.80;;
74959;SDS011;63518;49.572;1.106;2022-12-07T09:48:22;114.15;;;39.97;;
74959;SDS011;63518;49.572;1.106;2022-12-07T09:51:09;35.47;;;15.02;;
74959;SDS011;63518;49.572;1.106;2022-12-07T09:54:07;19.05;;;8.70;;
74959;SDS011;63518;49.572;1.106;2022-12-07T09:56:56;12.77;;;6.20;;
74959;SDS011;63518;49.572;1.106;2022-12-07T09:59:33;16.05;;;7.00;;
74959;SDS011;63518;49.572;1.106;2022-12-07T10:05:16;6.78;;;3.58;;
74959;SDS011;63518;49.572;1.106;2022-12-07T10:07:58;10.57;;;6.35;;
74959;SDS011;63518;49.572;1.106;2022-12-07T10:10:53;15.32;;;7.00;;
74959;SDS011;63518;49.572;1.106;2022-12-07T10:13:37;13.63;;;7.00;;
74959;SDS011;63518;49.572;1.106;2022-12-07T10:22:08;10.65;;;6.85;;
74959;SDS011;63518;49.572;1.106;2022-12-07T10:24:41;19.40;;;10.45;;
74959;SDS011;63518;49.572;1.106;2022-12-07T10:27:20;11.70;;;6.43;;
74959;SDS011;63518;49.572;1.106;2022-12-07T10:29:54;16.52;;;8.18;;
74959;SDS011;63518;49.572;1.106;2022-12-07T10:32:30;12.63;;;6.28;;
74959;SDS011;63518;49.572;1.106;2022-12-07T10:35:22;19.65;;;9.18;;
74959;SDS011;63518;49.572;1.106;2022-12-07T10:38:07;12.50;;;5.35;;
74959;SDS011;63518;49.572;1.106;2022-12-07T10:40:49;16.38;;;7.57;;
74959;SDS011;63518;49.572;1.106;2022-12-07T10:43:36;12.25;;;5.93;;
74959;SDS011;63518;49.572;1.106;2022-12-07T10:55:41;20.48;;;9.48;;
74959;SDS011;63518;49.572;1.106;2022-12-07T11:04:23;15.70;;;7.82;;
74959;SDS011;63518;49.572;1.106;2022-12-07T11:07:06;16.23;;;8.25;;
74959;SDS011;63518;49.572;1.106;2022-12-07T11:09:56;14.23;;;7.13;;
74959;SDS011;63518;49.572;1.106;2022-12-07T11:19:19;13.77;;;6.25;;
74959;SDS011;63518;49.572;1.106;2022-12-07T11:21:59;10.07;;;4.97;;
74959;SDS011;63518;49.572;1.106;2022-12-07T11:27:47;12.50;;;5.07;;
74959;SDS011;63518;49.572;1.106;2022-12-07T11:33:46;11.40;;;4.55;;
74959;SDS011;63518;49.572;1.106;2022-12-07T11:39:36;8.50;;;3.88;;
74959;SDS011;63518;49.572;1.106;2022-12-07T11:45:30;10.13;;;3.90;;
74959;SDS011;63518;49.572;1.106;2022-12-07T11:48:33;7.90;;;3.38;;
74959;SDS011;63518;49.572;1.106;2022-12-07T11:51:06;7.68;;;2.75;;
74959;SDS011;63518;49.572;1.106;2022-12-07T11:53:46;6.80;;;2.78;;
74959;SDS011;63518;49.572;1.106;2022-12-07T11:56:30;7.65;;;3.25;;
74959;SDS011;63518;49.572;1.106;2022-12-07T11:59:15;8.15;;;3.78;;
74959;SDS011;63518;49.572;1.106;2022-12-07T12:01:57;8.05;;;3.50;;
74959;SDS011;63518;49.572;1.106;2022-12-07T12:08:32;6.45;;;2.50;;
74959;SDS011;63518;49.572;1.106;2022-12-07T12:11:49;7.88;;;3.20;;
74959;SDS011;63518;49.572;1.106;2022-12-07T12:18:00;10.23;;;4.70;;
74959;SDS011;63518;49.572;1.106;2022-12-07T12:21:00;11.32;;;5.50;;
74959;SDS011;63518;49.572;1.106;2022-12-07T12:23:40;9.73;;;4.57;;
74959;SDS011;63518;49.572;1.106;2022-12-07T12:26:19;9.23;;;4.43;;
74959;SDS011;63518;49.572;1.106;2022-12-07T12:29:35;11.55;;;5.00;;
74959;SDS011;63518;49.572;1.106;2022-12-07T12:32:15;11.00;;;5.07;;
74959;SDS011;63518;49.572;1.106;2022-12-07T12:54:22;8.82;;;4.43;;
74959;SDS011;63518;49.572;1.106;2022-12-07T12:59:35;9.05;;;3.80;;
74959;SDS011;63518;49.572;1.106;2022-12-07T13:12:58;8.57;;;4.55;;
74959;SDS011;63518;49.572;1.106;2022-12-07T13:37:02;11.38;;;5.38;;
74959;SDS011;63518;49.572;1.106;2022-12-07T13:40:02;8.23;;;4.18;;
74959;SDS011;63518;49.572;1.106;2022-12-07T13:43:21;9.13;;;5.20;;
74959;SDS011;63518;49.572;1.106;2022-12-07T13:46:11;8.32;;;4.53;;
74959;SDS011;63518;49.572;1.106;2022-12-07T13:48:47;9.40;;;4.38;;
74959;SDS011;63518;49.572;1.106;2022-12-07T13:51:24;8.32;;;4.13;;
74959;SDS011;63518;49.572;1.106;2022-12-07T13:54:12;7.95;;;3.95;;
74959;SDS011;63518;49.572;1.106;2022-12-07T13:56:47;9.80;;;4.75;;
74959;SDS011;63518;49.572;1.106;2022-12-07T13:59:24;10.00;;;5.05;;
74959;SDS011;63518;49.572;1.106;2022-12-07T14:01:56;10.20;;;4.55;;
74959;SDS011;63518;49.572;1.106;2022-12-07T14:04:51;7.95;;;3.40;;
74959;SDS011;63518;49.572;1.106;2022-12-07T14:08:34;8.23;;;3.65;;
74959;SDS011;63518;49.572;1.106;2022-12-07T14:16:37;8.55;;;3.42;;
74959;SDS011;63518;49.572;1.106;2022-12-07T14:19:43;9.73;;;3.58;;
74959;SDS011;63518;49.572;1.106;2022-12-07T14:22:21;7.53;;;2.90;;
74959;SDS011;63518;49.572;1.106;2022-12-07T14:28:34;7.90;;;3.08;;
74959;SDS011;63518;49.572;1.106;2022-12-07T14:31:16;10.85;;;4.07;;
74959;SDS011;63518;49.572;1.106;2022-12-07T14:33:59;7.45;;;3.28;;
74959;SDS011;63518;49.572;1.106;2022-12-07T14:36:26;9.00;;;3.67;;
74959;SDS011;63518;49.572;1.106;2022-12-07T14:39:30;8.35;;;2.80;;
74959;SDS011;63518;49.572;1.106;2022-12-07T14:41:57;8.07;;;3.67;;
74959;SDS011;63518;49.572;1.106;2022-12-07T14:44:25;7.43;;;3.00;;
74959;SDS011;63518;49.572;1.106;2022-12-07T14:47:01;7.88;;;3.25;;
74959;SDS011;63518;49.572;1.106;2022-12-07T14:49:50;8.73;;;3.30;;
74959;SDS011;63518;49.572;1.106;2022-12-07T14:52:21;10.07;;;3.70;;
74959;SDS011;63518;49.572;1.106;2022-12-07T14:55:33;7.90;;;2.75;;
74959;SDS011;63518;49.572;1.106;2022-12-07T14:58:16;5.40;;;2.67;;
74959;SDS011;63518;49.572;1.106;2022-12-07T15:00:53;8.25;;;3.75;;
74959;SDS011;63518;49.572;1.106;2022-12-07T15:03:37;10.60;;;3.63;;
74959;SDS011;63518;49.572;1.106;2022-12-07T15:06:13;7.47;;;3.15;;
74959;SDS011;63518;49.572;1.106;2022-12-07T15:08:43;8.93;;;3.15;;
74959;SDS011;63518;49.572;1.106;2022-12-07T15:11:21;7.82;;;3.35;;
74959;SDS011;63518;49.572;1.106;2022-12-07T15:13:57;9.50;;;3.30;;
74959;SDS011;63518;49.572;1.106;2022-12-07T15:16:49;7.93;;;3.30;;
74959;SDS011;63518;49.572;1.106;2022-12-07T15:19:45;7.45;;;2.58;;
74959;SDS011;63518;49.572;1.106;2022-12-07T15:22:12;8.73;;;3.55;;
74959;SDS011;63518;49.572;1.106;2022-12-07T15:25:13;7.40;;;2.72;;
74959;SDS011;63518;49.572;1.106;2022-12-07T15:28:01;7.57;;;3.20;;
74959;SDS011;63518;49.572;1.106;2022-12-07T15:30:36;6.47;;;2.83;;
74959;SDS011;63518;49.572;1.106;2022-12-07T15:33:32;8.48;;;2.78;;
74959;SDS011;63518;49.572;1.106;2022-12-07T15:36:04;6.25;;;2.45;;
74959;SDS011;63518;49.572;1.106;2022-12-07T15:38:44;6.80;;;2.88;;
74959;SDS011;63518;49.572;1.106;2022-12-07T15:41:31;7.35;;;2.67;;
74959;SDS011;63518;49.572;1.106;2022-12-07T15:44:13;5.72;;;2.40;;
74959;SDS011;63518;49.572;1.106;2022-12-07T15:47:00;5.57;;;2.00;;
74959;SDS011;63518;49.572;1.106;2022-12-07T15:49:30;6.15;;;2.15;;
74959;SDS011;63518;49.572;1.106;2022-12-07T15:52:05;7.50;;;2.00;;
74959;SDS011;63518;49.572;1.106;2022-12-07T15:54:42;5.38;;;2.05;;
74959;SDS011;63518;49.572;1.106;2022-12-07T15:57:10;5.53;;;2.30;;
74959;SDS011;63518;49.572;1.106;2022-12-07T15:59:51;7.05;;;2.58;;
74959;SDS011;63518;49.572;1.106;2022-12-07T16:02:38;7.30;;;2.95;;
74959;SDS011;63518;49.572;1.106;2022-12-07T16:05:22;8.75;;;2.72;;
74959;SDS011;63518;49.572;1.106;2022-12-07T16:08:09;5.47;;;2.75;;
74959;SDS011;63518;49.572;1.106;2022-12-07T16:10:42;6.80;;;3.10;;
74959;SDS011;63518;49.572;1.106;2022-12-07T16:13:43;6.95;;;3.40;;
74959;SDS011;63518;49.572;1.106;2022-12-07T16:16:26;9.48;;;4.50;;
74959;SDS011;63518;49.572;1.106;2022-12-07T16:19:27;10.05;;;4.32;;
74959;SDS011;63518;49.572;1.106;2022-12-07T16:21:54;7.13;;;2.90;;
74959;SDS011;63518;49.572;1.106;2022-12-07T16:24:37;7.90;;;2.97;;
74959;SDS011;63518;49.572;1.106;2022-12-07T16:27:09;5.90;;;2.55;;
74959;SDS011;63518;49.572;1.106;2022-12-07T16:29:55;5.18;;;2.17;;
74959;SDS011;63518;49.572;1.106;2022-12-07T16:32:31;5.32;;;2.13;;
74959;SDS011;63518;49.572;1.106;2022-12-07T16:35:14;4.53;;;1.77;;
74959;SDS011;63518;49.572;1.106;2022-12-07T16:38:11;5.75;;;1.55;;
74959;SDS011;63518;49.572;1.106;2022-12-07T16:40:39;5.32;;;2.00;;
74959;SDS011;63518;49.572;1.106;2022-12-07T16:43:07;4.63;;;1.70;;
74959;SDS011;63518;49.572;1.106;2022-12-07T16:45:39;5.05;;;1.77;;
74959;SDS011;63518;49.572;1.106;2022-12-07T16:48:10;3.65;;;1.23;;
74959;SDS011;63518;49.572;1.106;2022-12-07T16:50:39;3.15;;;1.00;;
74959;SDS011;63518;49.572;1.106;2022-12-07T16:53:20;4.18;;;0.90;;
74959;SDS011;63518;49.572;1.106;2022-12-07T16:55:54;2.65;;;0.95;;
74959;SDS011;63518;49.572;1.106;2022-12-07T16:58:46;3.65;;;0.93;;
74959;SDS011;63518;49.572;1.106;2022-12-07T17:01:16;6.55;;;1.17;;
74959;SDS011;63518;49.572;1.106;2022-12-07T17:03:48;3.50;;;1.00;;
74959;SDS011;63518;49.572;1.106;2022-12-07T17:06:32;3.20;;;0.95;;
74959;SDS011;63518;49.572;1.106;2022-12-07T17:09:03;4.40;;;1.15;;
74959;SDS011;63518;49.572;1.106;2022-12-07T17:11:35;7.25;;;1.55;;
74959;SDS011;63518;49.572;1.106;2022-12-07T17:14:12;5.90;;;1.23;;
74959;SDS011;63518;49.572;1.106;2022-12-07T17:16:58;5.90;;;1.77;;
74959;SDS011;63518;49.572;1.106;2022-12-07T17:19:26;3.80;;;1.27;;
74959;SDS011;63518;49.572;1.106;2022-12-07T17:21:56;4.20;;;1.17;;
74959;SDS011;63518;49.572;1.106;2022-12-07T17:24:33;4.10;;;1.20;;
74959;SDS011;63518;49.572;1.106;2022-12-07T17:27:05;3.30;;;1.17;;
74959;SDS011;63518;49.572;1.106;2022-12-07T17:29:33;4.10;;;1.20;;
74959;SDS011;63518;49.572;1.106;2022-12-07T17:32:06;4.22;;;1.25;;
74959;SDS011;63518;49.572;1.106;2022-12-07T17:34:48;4.38;;;1.08;;
74959;SDS011;63518;49.572;1.106;2022-12-07T17:37:18;3.33;;;1.27;;
74959;SDS011;63518;49.572;1.106;2022-12-07T17:39:54;3.78;;;1.05;;
74959;SDS011;63518;49.572;1.106;2022-12-07T17:42:26;5.25;;;1.45;;
74959;SDS011;63518;49.572;1.106;2022-12-07T17:47:45;4.40;;;1.58;;
74959;SDS011;63518;49.572;1.106;2022-12-07T17:50:12;4.00;;;1.77;;
74959;SDS011;63518;49.572;1.106;2022-12-07T17:52:40;4.03;;;1.30;;
74959;SDS011;63518;49.572;1.106;2022-12-07T17:55:33;5.80;;;1.73;;
74959;SDS011;63518;49.572;1.106;2022-12-07T17:58:30;4.25;;;1.45;;
74959;SDS011;63518;49.572;1.106;2022-12-07T18:01:08;4.63;;;1.55;;
74959;SDS011;63518;49.572;1.106;2022-12-07T18:03:44;3.75;;;1.88;;
74959;SDS011;63518;49.572;1.106;2022-12-07T18:06:32;4.43;;;1.58;;
74959;SDS011;63518;49.572;1.106;2022-12-07T18:08:59;4.55;;;1.90;;
74959;SDS011;63518;49.572;1.106;2022-12-07T18:11:27;4.18;;;1.80;;
74959;SDS011;63518;49.572;1.106;2022-12-07T18:13:59;5.45;;;2.17;;
74959;SDS011;63518;49.572;1.106;2022-12-07T18:16:27;4.57;;;1.60;;
74959;SDS011;63518;49.572;1.106;2022-12-07T18:19:04;5.35;;;1.83;;
74959;SDS011;63518;49.572;1.106;2022-12-07T18:21:35;8.60;;;2.35;;
74959;SDS011;63518;49.572;1.106;2022-12-07T18:24:08;5.82;;;2.15;;
74959;SDS011;63518;49.572;1.106;2022-12-07T18:26:37;4.85;;;1.95;;